Terminal Aerodrome Forecast
Issued by NWS Binghamton, NY

Home | Current Version | Previous Version | Text Only | Print | Product List | Glossary On
Versions: 1 2 3 4 5 6 7 8 9 10 11 12 13 14 15 16 17 18 19 20
000
FTUS41 KBGM 271700
TAFSYR
TAF
KSYR 271729Z 2718/2818 19008KT P6SM BKN045
     FM280200 21012KT P6SM -SHRA SCT025 OVC035
     FM280900 28010G20KT P6SM BKN040=

USA.gov is the U.S. government's official web portal to all federal, state and local government web resources and services.